sensor_id;sensor_type;location;lat;lon;timestamp;P1;durP1;ratioP1;P2;durP2;ratioP2
23567;SDS011;11962;50.838;4.430;2023-06-24T00:01:26;7.88;;;4.15;;
23567;SDS011;11962;50.838;4.430;2023-06-24T00:03:52;6.95;;;4.32;;
23567;SDS011;11962;50.838;4.430;2023-06-24T00:06:21;7.43;;;4.47;;
23567;SDS011;11962;50.838;4.430;2023-06-24T00:08:51;7.57;;;4.40;;
23567;SDS011;11962;50.838;4.430;2023-06-24T00:11:17;8.98;;;4.43;;
23567;SDS011;11962;50.838;4.430;2023-06-24T00:13:43;9.23;;;4.50;;
23567;SDS011;11962;50.838;4.430;2023-06-24T00:16:10;5.00;;;4.15;;
23567;SDS011;11962;50.838;4.430;2023-06-24T00:18:36;9.50;;;4.13;;
23567;SDS011;11962;50.838;4.430;2023-06-24T00:21:05;8.55;;;4.50;;
23567;SDS011;11962;50.838;4.430;2023-06-24T00:23:31;7.43;;;4.28;;
23567;SDS011;11962;50.838;4.430;2023-06-24T00:25:59;5.53;;;3.90;;
23567;SDS011;11962;50.838;4.430;2023-06-24T00:28:25;11.63;;;4.95;;
23567;SDS011;11962;50.838;4.430;2023-06-24T00:30:52;5.88;;;4.18;;
23567;SDS011;11962;50.838;4.430;2023-06-24T00:33:18;8.35;;;4.03;;
23567;SDS011;11962;50.838;4.430;2023-06-24T00:35:45;6.78;;;3.72;;
23567;SDS011;11962;50.838;4.430;2023-06-24T00:38:11;4.82;;;3.72;;
23567;SDS011;11962;50.838;4.430;2023-06-24T00:40:37;6.35;;;3.97;;
23567;SDS011;11962;50.838;4.430;2023-06-24T00:43:04;5.35;;;3.78;;
23567;SDS011;11962;50.838;4.430;2023-06-24T00:45:32;5.28;;;3.85;;
23567;SDS011;11962;50.838;4.430;2023-06-24T00:47:58;9.48;;;4.35;;
23567;SDS011;11962;50.838;4.430;2023-06-24T00:50:24;5.72;;;4.20;;
23567;SDS011;11962;50.838;4.430;2023-06-24T00:52:50;6.32;;;3.90;;
23567;SDS011;11962;50.838;4.430;2023-06-24T00:55:16;5.65;;;3.72;;
23567;SDS011;11962;50.838;4.430;2023-06-24T00:57:43;6.35;;;3.78;;
23567;SDS011;11962;50.838;4.430;2023-06-24T01:00:11;5.72;;;3.50;;
23567;SDS011;11962;50.838;4.430;2023-06-24T01:02:42;7.25;;;3.83;;
23567;SDS011;11962;50.838;4.430;2023-06-24T01:05:11;8.25;;;4.30;;
23567;SDS011;11962;50.838;4.430;2023-06-24T01:07:38;5.97;;;3.92;;
23567;SDS011;11962;50.838;4.430;2023-06-24T01:10:04;9.02;;;4.07;;
23567;SDS011;11962;50.838;4.430;2023-06-24T01:12:33;9.40;;;4.60;;
23567;SDS011;11962;50.838;4.430;2023-06-24T01:15:00;6.95;;;4.57;;
23567;SDS011;11962;50.838;4.430;2023-06-24T01:17:48;7.45;;;4.07;;
23567;SDS011;11962;50.838;4.430;2023-06-24T01:20:21;7.05;;;4.13;;
23567;SDS011;11962;50.838;4.430;2023-06-24T01:26:29;35.72;;;5.10;;
23567;SDS011;11962;50.838;4.430;2023-06-24T01:32:43;9.65;;;4.97;;
23567;SDS011;11962;50.838;4.430;2023-06-24T01:35:14;9.48;;;5.35;;
23567;SDS011;11962;50.838;4.430;2023-06-24T01:37:47;7.18;;;4.70;;
23567;SDS011;11962;50.838;4.430;2023-06-24T01:40:26;8.82;;;4.95;;
23567;SDS011;11962;50.838;4.430;2023-06-24T01:42:54;7.63;;;5.00;;
23567;SDS011;11962;50.838;4.430;2023-06-24T01:45:23;10.40;;;5.47;;
23567;SDS011;11962;50.838;4.430;2023-06-24T01:48:37;7.38;;;4.95;;
23567;SDS011;11962;50.838;4.430;2023-06-24T01:50:44;7.25;;;5.22;;
23567;SDS011;11962;50.838;4.430;2023-06-24T01:53:19;6.15;;;4.93;;
23567;SDS011;11962;50.838;4.430;2023-06-24T01:55:46;6.18;;;4.55;;
23567;SDS011;11962;50.838;4.430;2023-06-24T01:58:13;5.28;;;4.50;;
23567;SDS011;11962;50.838;4.430;2023-06-24T02:00:42;8.40;;;5.25;;
23567;SDS011;11962;50.838;4.430;2023-06-24T02:03:09;6.68;;;4.90;;
23567;SDS011;11962;50.838;4.430;2023-06-24T02:05:36;8.25;;;5.15;;
23567;SDS011;11962;50.838;4.430;2023-06-24T02:08:05;6.80;;;4.70;;
23567;SDS011;11962;50.838;4.430;2023-06-24T02:10:33;9.70;;;5.18;;
23567;SDS011;11962;50.838;4.430;2023-06-24T02:13:03;7.70;;;5.13;;
23567;SDS011;11962;50.838;4.430;2023-06-24T02:15:29;9.98;;;5.38;;
23567;SDS011;11962;50.838;4.430;2023-06-24T02:17:56;5.05;;;4.30;;
23567;SDS011;11962;50.838;4.430;2023-06-24T02:20:23;12.68;;;5.53;;
23567;SDS011;11962;50.838;4.430;2023-06-24T02:22:52;5.80;;;4.72;;
23567;SDS011;11962;50.838;4.430;2023-06-24T02:25:18;6.07;;;4.70;;
23567;SDS011;11962;50.838;4.430;2023-06-24T02:27:44;11.57;;;5.15;;
23567;SDS011;11962;50.838;4.430;2023-06-24T02:30:11;7.68;;;4.65;;
23567;SDS011;11962;50.838;4.430;2023-06-24T02:32:38;7.03;;;4.88;;
23567;SDS011;11962;50.838;4.430;2023-06-24T02:35:04;7.47;;;4.60;;
23567;SDS011;11962;50.838;4.430;2023-06-24T02:37:30;6.65;;;4.70;;
23567;SDS011;11962;50.838;4.430;2023-06-24T02:39:56;8.38;;;5.05;;
23567;SDS011;11962;50.838;4.430;2023-06-24T02:42:22;9.18;;;5.22;;
23567;SDS011;11962;50.838;4.430;2023-06-24T02:44:48;9.65;;;5.05;;
23567;SDS011;11962;50.838;4.430;2023-06-24T02:47:14;7.28;;;5.00;;
23567;SDS011;11962;50.838;4.430;2023-06-24T02:49:41;7.38;;;5.10;;
23567;SDS011;11962;50.838;4.430;2023-06-24T02:52:11;8.20;;;5.45;;
23567;SDS011;11962;50.838;4.430;2023-06-24T02:54:37;11.55;;;5.07;;
23567;SDS011;11962;50.838;4.430;2023-06-24T02:57:05;8.82;;;5.10;;
23567;SDS011;11962;50.838;4.430;2023-06-24T02:59:31;7.88;;;5.18;;
23567;SDS011;11962;50.838;4.430;2023-06-24T03:01:57;10.27;;;5.00;;
23567;SDS011;11962;50.838;4.430;2023-06-24T03:04:24;8.48;;;4.80;;
23567;SDS011;11962;50.838;4.430;2023-06-24T03:06:51;6.57;;;4.80;;
23567;SDS011;11962;50.838;4.430;2023-06-24T03:09:18;7.38;;;4.60;;
23567;SDS011;11962;50.838;4.430;2023-06-24T03:11:44;7.45;;;4.65;;
23567;SDS011;11962;50.838;4.430;2023-06-24T03:14:10;5.82;;;4.82;;
23567;SDS011;11962;50.838;4.430;2023-06-24T03:16:36;5.65;;;4.57;;
23567;SDS011;11962;50.838;4.430;2023-06-24T03:19:03;11.55;;;4.65;;
23567;SDS011;11962;50.838;4.430;2023-06-24T03:21:29;8.82;;;4.55;;
23567;SDS011;11962;50.838;4.430;2023-06-24T03:23:55;6.90;;;4.15;;
23567;SDS011;11962;50.838;4.430;2023-06-24T03:26:23;6.93;;;3.88;;
23567;SDS011;11962;50.838;4.430;2023-06-24T03:28:50;11.38;;;4.70;;
23567;SDS011;11962;50.838;4.430;2023-06-24T03:31:15;10.20;;;4.80;;
23567;SDS011;11962;50.838;4.430;2023-06-24T03:33:42;6.18;;;4.35;;
23567;SDS011;11962;50.838;4.430;2023-06-24T03:36:10;6.63;;;4.18;;
23567;SDS011;11962;50.838;4.430;2023-06-24T03:38:36;9.10;;;4.38;;
23567;SDS011;11962;50.838;4.430;2023-06-24T03:41:02;9.25;;;4.78;;
23567;SDS011;11962;50.838;4.430;2023-06-24T03:43:27;6.13;;;4.13;;
23567;SDS011;11962;50.838;4.430;2023-06-24T03:45:53;6.97;;;4.25;;
23567;SDS011;11962;50.838;4.430;2023-06-24T03:48:20;9.63;;;4.88;;
23567;SDS011;11962;50.838;4.430;2023-06-24T03:50:45;8.70;;;4.40;;
23567;SDS011;11962;50.838;4.430;2023-06-24T03:53:11;8.27;;;4.43;;
23567;SDS011;11962;50.838;4.430;2023-06-24T03:55:37;8.57;;;4.60;;
23567;SDS011;11962;50.838;4.430;2023-06-24T03:58:03;4.93;;;4.00;;
23567;SDS011;11962;50.838;4.430;2023-06-24T04:00:28;7.70;;;4.78;;
23567;SDS011;11962;50.838;4.430;2023-06-24T04:02:54;5.50;;;4.13;;
23567;SDS011;11962;50.838;4.430;2023-06-24T04:05:20;6.55;;;4.00;;
23567;SDS011;11962;50.838;4.430;2023-06-24T04:07:46;8.48;;;4.20;;
23567;SDS011;11962;50.838;4.430;2023-06-24T04:10:12;5.45;;;4.45;;
23567;SDS011;11962;50.838;4.430;2023-06-24T04:12:38;6.13;;;3.95;;
23567;SDS011;11962;50.838;4.430;2023-06-24T04:15:04;7.75;;;3.92;;
23567;SDS011;11962;50.838;4.430;2023-06-24T04:17:30;6.15;;;4.60;;
23567;SDS011;11962;50.838;4.430;2023-06-24T04:19:56;6.20;;;4.00;;
23567;SDS011;11962;50.838;4.430;2023-06-24T04:22:24;5.75;;;4.28;;
23567;SDS011;11962;50.838;4.430;2023-06-24T04:24:50;6.50;;;4.15;;
23567;SDS011;11962;50.838;4.430;2023-06-24T04:27:16;8.10;;;3.95;;
23567;SDS011;11962;50.838;4.430;2023-06-24T04:29:41;7.53;;;4.20;;
23567;SDS011;11962;50.838;4.430;2023-06-24T04:32:07;5.82;;;4.03;;
23567;SDS011;11962;50.838;4.430;2023-06-24T04:34:33;5.93;;;3.75;;
23567;SDS011;11962;50.838;4.430;2023-06-24T04:36:59;5.43;;;3.90;;
23567;SDS011;11962;50.838;4.430;2023-06-24T04:39:25;7.03;;;4.30;;
23567;SDS011;11962;50.838;4.430;2023-06-24T04:41:50;7.32;;;4.10;;
23567;SDS011;11962;50.838;4.430;2023-06-24T04:44:16;6.70;;;3.63;;
23567;SDS011;11962;50.838;4.430;2023-06-24T04:46:42;7.03;;;3.60;;
23567;SDS011;11962;50.838;4.430;2023-06-24T04:49:08;4.35;;;3.55;;
23567;SDS011;11962;50.838;4.430;2023-06-24T04:51:33;6.00;;;3.75;;
23567;SDS011;11962;50.838;4.430;2023-06-24T04:54:00;5.82;;;3.60;;
23567;SDS011;11962;50.838;4.430;2023-06-24T04:56:26;4.57;;;3.50;;
23567;SDS011;11962;50.838;4.430;2023-06-24T04:58:53;4.55;;;3.33;;
23567;SDS011;11962;50.838;4.430;2023-06-24T05:01:19;5.05;;;3.28;;
23567;SDS011;11962;50.838;4.430;2023-06-24T05:03:44;4.28;;;3.38;;
23567;SDS011;11962;50.838;4.430;2023-06-24T05:06:10;5.65;;;3.40;;
23567;SDS011;11962;50.838;4.430;2023-06-24T05:08:36;7.28;;;3.50;;
23567;SDS011;11962;50.838;4.430;2023-06-24T05:11:01;4.70;;;3.08;;
23567;SDS011;11962;50.838;4.430;2023-06-24T05:13:27;3.38;;;2.95;;
23567;SDS011;11962;50.838;4.430;2023-06-24T05:15:53;5.15;;;3.50;;
23567;SDS011;11962;50.838;4.430;2023-06-24T05:18:19;4.78;;;3.15;;
23567;SDS011;11962;50.838;4.430;2023-06-24T05:20:44;6.45;;;3.20;;
23567;SDS011;11962;50.838;4.430;2023-06-24T05:23:10;5.53;;;3.22;;
23567;SDS011;11962;50.838;4.430;2023-06-24T05:25:36;5.40;;;3.28;;
23567;SDS011;11962;50.838;4.430;2023-06-24T05:28:02;5.00;;;3.17;;
23567;SDS011;11962;50.838;4.430;2023-06-24T05:30:28;5.32;;;3.00;;
23567;SDS011;11962;50.838;4.430;2023-06-24T05:32:53;5.00;;;3.08;;
23567;SDS011;11962;50.838;4.430;2023-06-24T05:35:19;3.58;;;2.67;;
23567;SDS011;11962;50.838;4.430;2023-06-24T05:37:45;4.22;;;2.88;;
23567;SDS011;11962;50.838;4.430;2023-06-24T05:40:10;5.78;;;3.00;;
23567;SDS011;11962;50.838;4.430;2023-06-24T05:42:37;5.75;;;2.58;;
23567;SDS011;11962;50.838;4.430;2023-06-24T05:45:04;5.43;;;3.10;;
23567;SDS011;11962;50.838;4.430;2023-06-24T05:47:31;4.47;;;3.17;;
23567;SDS011;11962;50.838;4.430;2023-06-24T05:49:57;3.40;;;2.50;;
23567;SDS011;11962;50.838;4.430;2023-06-24T05:52:23;4.72;;;2.50;;
23567;SDS011;11962;50.838;4.430;2023-06-24T05:54:49;4.30;;;2.50;;
23567;SDS011;11962;50.838;4.430;2023-06-24T05:57:15;3.38;;;2.30;;
23567;SDS011;11962;50.838;4.430;2023-06-24T05:59:41;5.30;;;2.55;;
23567;SDS011;11962;50.838;4.430;2023-06-24T06:02:07;5.53;;;2.10;;
23567;SDS011;11962;50.838;4.430;2023-06-24T06:04:32;4.30;;;2.20;;
23567;SDS011;11962;50.838;4.430;2023-06-24T06:06:58;7.53;;;2.10;;
23567;SDS011;11962;50.838;4.430;2023-06-24T06:09:24;3.78;;;1.70;;
23567;SDS011;11962;50.838;4.430;2023-06-24T06:11:50;3.88;;;2.10;;
23567;SDS011;11962;50.838;4.430;2023-06-24T06:14:15;4.70;;;1.95;;
23567;SDS011;11962;50.838;4.430;2023-06-24T06:16:41;4.70;;;2.00;;
23567;SDS011;11962;50.838;4.430;2023-06-24T06:19:07;5.10;;;2.25;;
23567;SDS011;11962;50.838;4.430;2023-06-24T06:21:32;4.22;;;2.08;;
23567;SDS011;11962;50.838;4.430;2023-06-24T06:23:58;5.82;;;2.03;;
23567;SDS011;11962;50.838;4.430;2023-06-24T06:26:24;3.97;;;2.00;;
23567;SDS011;11962;50.838;4.430;2023-06-24T06:28:50;3.97;;;2.00;;
23567;SDS011;11962;50.838;4.430;2023-06-24T06:31:18;3.25;;;2.10;;
23567;SDS011;11962;50.838;4.430;2023-06-24T06:33:44;4.30;;;1.90;;
23567;SDS011;11962;50.838;4.430;2023-06-24T06:36:09;3.20;;;1.83;;
23567;SDS011;11962;50.838;4.430;2023-06-24T06:38:35;3.40;;;1.85;;
23567;SDS011;11962;50.838;4.430;2023-06-24T06:41:01;3.50;;;2.30;;
23567;SDS011;11962;50.838;4.430;2023-06-24T06:43:27;4.85;;;1.70;;
23567;SDS011;11962;50.838;4.430;2023-06-24T06:45:52;4.85;;;1.83;;
23567;SDS011;11962;50.838;4.430;2023-06-24T06:48:18;6.30;;;1.70;;
23567;SDS011;11962;50.838;4.430;2023-06-24T06:50:44;4.68;;;1.90;;
23567;SDS011;11962;50.838;4.430;2023-06-24T06:53:10;7.18;;;1.95;;
23567;SDS011;11962;50.838;4.430;2023-06-24T06:55:37;4.05;;;1.50;;
23567;SDS011;11962;50.838;4.430;2023-06-24T06:58:04;4.97;;;1.80;;
23567;SDS011;11962;50.838;4.430;2023-06-24T07:00:30;2.07;;;1.60;;
23567;SDS011;11962;50.838;4.430;2023-06-24T07:02:56;3.33;;;1.80;;
23567;SDS011;11962;50.838;4.430;2023-06-24T07:05:21;3.23;;;1.73;;
23567;SDS011;11962;50.838;4.430;2023-06-24T07:07:47;4.00;;;1.70;;
23567;SDS011;11962;50.838;4.430;2023-06-24T07:10:15;3.50;;;1.48;;
23567;SDS011;11962;50.838;4.430;2023-06-24T07:12:42;3.83;;;1.48;;
23567;SDS011;11962;50.838;4.430;2023-06-24T07:15:08;3.40;;;1.70;;
23567;SDS011;11962;50.838;4.430;2023-06-24T07:17:34;4.15;;;1.73;;
23567;SDS011;11962;50.838;4.430;2023-06-24T07:20:00;4.27;;;1.93;;
23567;SDS011;11962;50.838;4.430;2023-06-24T07:22:25;3.33;;;1.77;;
23567;SDS011;11962;50.838;4.430;2023-06-24T07:24:51;2.47;;;1.80;;
23567;SDS011;11962;50.838;4.430;2023-06-24T07:27:17;2.43;;;1.80;;
23567;SDS011;11962;50.838;4.430;2023-06-24T07:29:43;2.10;;;1.58;;
23567;SDS011;11962;50.838;4.430;2023-06-24T07:32:08;2.57;;;1.40;;
23567;SDS011;11962;50.838;4.430;2023-06-24T07:34:34;3.05;;;1.65;;
23567;SDS011;11962;50.838;4.430;2023-06-24T07:37:00;2.17;;;1.67;;
23567;SDS011;11962;50.838;4.430;2023-06-24T07:39:25;2.63;;;1.63;;
23567;SDS011;11962;50.838;4.430;2023-06-24T07:41:51;3.00;;;1.60;;
23567;SDS011;11962;50.838;4.430;2023-06-24T07:44:17;1.80;;;1.63;;
23567;SDS011;11962;50.838;4.430;2023-06-24T07:46:44;2.45;;;1.67;;
23567;SDS011;11962;50.838;4.430;2023-06-24T07:49:10;3.53;;;1.95;;
23567;SDS011;11962;50.838;4.430;2023-06-24T07:51:35;4.65;;;1.75;;
23567;SDS011;11962;50.838;4.430;2023-06-24T07:54:01;2.15;;;1.30;;
23567;SDS011;11962;50.838;4.430;2023-06-24T07:56:27;2.92;;;1.30;;
23567;SDS011;11962;50.838;4.430;2023-06-24T07:58:52;2.60;;;1.70;;
23567;SDS011;11962;50.838;4.430;2023-06-24T08:01:18;2.08;;;1.40;;
23567;SDS011;11962;50.838;4.430;2023-06-24T08:03:44;1.73;;;1.35;;
23567;SDS011;11962;50.838;4.430;2023-06-24T08:06:10;2.30;;;1.25;;
23567;SDS011;11962;50.838;4.430;2023-06-24T08:08:36;1.75;;;1.30;;
23567;SDS011;11962;50.838;4.430;2023-06-24T08:11:02;3.35;;;1.40;;
23567;SDS011;11962;50.838;4.430;2023-06-24T08:13:28;1.92;;;1.30;;
23567;SDS011;11962;50.838;4.430;2023-06-24T08:15:54;1.58;;;1.48;;
23567;SDS011;11962;50.838;4.430;2023-06-24T08:18:20;3.92;;;1.50;;
23567;SDS011;11962;50.838;4.430;2023-06-24T08:20:45;3.88;;;1.23;;
23567;SDS011;11962;50.838;4.430;2023-06-24T08:23:11;3.33;;;1.20;;
23567;SDS011;11962;50.838;4.430;2023-06-24T08:25:37;3.15;;;1.45;;
23567;SDS011;11962;50.838;4.430;2023-06-24T08:28:03;2.95;;;1.50;;
23567;SDS011;11962;50.838;4.430;2023-06-24T08:30:29;4.00;;;1.60;;
23567;SDS011;11962;50.838;4.430;2023-06-24T08:32:55;3.08;;;1.55;;
23567;SDS011;11962;50.838;4.430;2023-06-24T08:37:46;1.92;;;1.05;;
23567;SDS011;11962;50.838;4.430;2023-06-24T08:40:12;2.85;;;1.40;;
23567;SDS011;11962;50.838;4.430;2023-06-24T08:42:38;2.63;;;1.60;;
23567;SDS011;11962;50.838;4.430;2023-06-24T08:45:03;1.90;;;1.30;;
23567;SDS011;11962;50.838;4.430;2023-06-24T08:47:29;2.70;;;1.63;;
23567;SDS011;11962;50.838;4.430;2023-06-24T08:52:35;4.13;;;1.30;;
23567;SDS011;11962;50.838;4.430;2023-06-24T08:55:02;3.33;;;1.38;;
23567;SDS011;11962;50.838;4.430;2023-06-24T08:57:31;2.53;;;1.20;;
23567;SDS011;11962;50.838;4.430;2023-06-24T08:59:57;1.92;;;1.42;;
23567;SDS011;11962;50.838;4.430;2023-06-24T09:02:22;3.45;;;1.45;;
23567;SDS011;11962;50.838;4.430;2023-06-24T09:04:50;3.28;;;1.50;;
23567;SDS011;11962;50.838;4.430;2023-06-24T09:07:25;2.47;;;1.20;;
23567;SDS011;11962;50.838;4.430;2023-06-24T09:12:18;1.42;;;1.10;;
23567;SDS011;11962;50.838;4.430;2023-06-24T09:14:50;1.65;;;1.38;;
23567;SDS011;11962;50.838;4.430;2023-06-24T09:17:16;1.42;;;1.02;;
23567;SDS011;11962;50.838;4.430;2023-06-24T09:19:42;2.47;;;1.27;;
23567;SDS011;11962;50.838;4.430;2023-06-24T09:22:09;1.55;;;1.10;;
23567;SDS011;11962;50.838;4.430;2023-06-24T09:24:43;3.95;;;1.42;;
23567;SDS011;11962;50.838;4.430;2023-06-24T09:27:11;2.05;;;1.55;;
23567;SDS011;11962;50.838;4.430;2023-06-24T09:29:39;1.73;;;1.23;;
23567;SDS011;11962;50.838;4.430;2023-06-24T09:32:05;2.03;;;1.40;;
23567;SDS011;11962;50.838;4.430;2023-06-24T09:34:31;3.60;;;1.45;;
23567;SDS011;11962;50.838;4.430;2023-06-24T09:36:58;1.63;;;1.20;;
23567;SDS011;11962;50.838;4.430;2023-06-24T09:39:25;1.73;;;1.30;;
23567;SDS011;11962;50.838;4.430;2023-06-24T09:41:58;1.35;;;1.25;;
23567;SDS011;11962;50.838;4.430;2023-06-24T09:44:26;1.55;;;1.00;;
23567;SDS011;11962;50.838;4.430;2023-06-24T09:46:52;1.27;;;1.10;;
23567;SDS011;11962;50.838;4.430;2023-06-24T09:49:19;1.25;;;1.13;;
23567;SDS011;11962;50.838;4.430;2023-06-24T09:51:46;1.17;;;1.08;;
23567;SDS011;11962;50.838;4.430;2023-06-24T09:54:14;2.05;;;1.00;;
23567;SDS011;11962;50.838;4.430;2023-06-24T09:56:45;2.63;;;1.20;;
23567;SDS011;11962;50.838;4.430;2023-06-24T09:59:14;2.03;;;1.20;;
23567;SDS011;11962;50.838;4.430;2023-06-24T10:01:43;1.65;;;1.10;;
23567;SDS011;11962;50.838;4.430;2023-06-24T10:04:13;1.80;;;1.20;;
23567;SDS011;11962;50.838;4.430;2023-06-24T10:06:41;3.30;;;1.10;;
23567;SDS011;11962;50.838;4.430;2023-06-24T10:09:07;2.65;;;1.30;;
23567;SDS011;11962;50.838;4.430;2023-06-24T10:11:34;1.30;;;1.05;;
23567;SDS011;11962;50.838;4.430;2023-06-24T10:14:00;1.30;;;1.02;;
23567;SDS011;11962;50.838;4.430;2023-06-24T10:16:26;2.03;;;0.98;;
23567;SDS011;11962;50.838;4.430;2023-06-24T10:18:52;2.33;;;1.33;;
23567;SDS011;11962;50.838;4.430;2023-06-24T10:21:44;1.25;;;1.13;;
23567;SDS011;11962;50.838;4.430;2023-06-24T10:24:29;1.30;;;1.08;;
23567;SDS011;11962;50.838;4.430;2023-06-24T10:27:00;1.90;;;1.10;;
23567;SDS011;11962;50.838;4.430;2023-06-24T10:29:31;2.25;;;1.10;;
23567;SDS011;11962;50.838;4.430;2023-06-24T10:32:07;3.15;;;1.23;;
23567;SDS011;11962;50.838;4.430;2023-06-24T10:34:43;1.50;;;1.10;;
23567;SDS011;11962;50.838;4.430;2023-06-24T10:37:22;1.88;;;1.25;;
23567;SDS011;11962;50.838;4.430;2023-06-24T10:39:53;1.88;;;1.33;;
23567;SDS011;11962;50.838;4.430;2023-06-24T10:44:49;2.95;;;1.15;;
23567;SDS011;11962;50.838;4.430;2023-06-24T10:47:16;1.70;;;1.30;;
23567;SDS011;11962;50.838;4.430;2023-06-24T10:49:42;1.98;;;1.40;;
23567;SDS011;11962;50.838;4.430;2023-06-24T10:52:09;3.50;;;1.50;;
23567;SDS011;11962;50.838;4.430;2023-06-24T10:54:36;2.67;;;1.73;;
23567;SDS011;11962;50.838;4.430;2023-06-24T10:57:10;2.40;;;1.42;;
23567;SDS011;11962;50.838;4.430;2023-06-24T10:59:40;1.20;;;1.10;;
23567;SDS011;11962;50.838;4.430;2023-06-24T11:02:12;5.28;;;1.85;;
23567;SDS011;11962;50.838;4.430;2023-06-24T11:04:46;2.97;;;1.35;;
23567;SDS011;11962;50.838;4.430;2023-06-24T11:07:12;2.00;;;1.27;;
23567;SDS011;11962;50.838;4.430;2023-06-24T11:09:42;3.55;;;1.50;;
23567;SDS011;11962;50.838;4.430;2023-06-24T11:12:16;1.63;;;1.40;;
23567;SDS011;11962;50.838;4.430;2023-06-24T11:14:42;2.35;;;1.58;;
23567;SDS011;11962;50.838;4.430;2023-06-24T11:17:08;4.32;;;1.40;;
23567;SDS011;11962;50.838;4.430;2023-06-24T11:19:34;3.00;;;1.60;;
23567;SDS011;11962;50.838;4.430;2023-06-24T11:22:04;3.47;;;1.50;;
23567;SDS011;11962;50.838;4.430;2023-06-24T11:26:56;2.90;;;1.33;;
23567;SDS011;11962;50.838;4.430;2023-06-24T11:29:22;1.38;;;1.27;;
23567;SDS011;11962;50.838;4.430;2023-06-24T11:34:15;2.15;;;1.50;;
23567;SDS011;11962;50.838;4.430;2023-06-24T11:36:41;2.55;;;1.67;;
23567;SDS011;11962;50.838;4.430;2023-06-24T11:39:07;1.70;;;1.60;;
23567;SDS011;11962;50.838;4.430;2023-06-24T11:41:32;1.50;;;1.33;;
23567;SDS011;11962;50.838;4.430;2023-06-24T11:43:58;1.92;;;1.50;;
23567;SDS011;11962;50.838;4.430;2023-06-24T11:46:25;2.35;;;1.65;;
23567;SDS011;11962;50.838;4.430;2023-06-24T11:49:05;2.92;;;1.70;;
23567;SDS011;11962;50.838;4.430;2023-06-24T11:51:32;2.33;;;1.50;;
23567;SDS011;11962;50.838;4.430;2023-06-24T11:53:59;2.55;;;1.42;;
23567;SDS011;11962;50.838;4.430;2023-06-24T11:56:39;1.85;;;1.50;;
23567;SDS011;11962;50.838;4.430;2023-06-24T11:59:06;1.65;;;1.50;;
23567;SDS011;11962;50.838;4.430;2023-06-24T12:01:42;3.00;;;1.50;;
23567;SDS011;11962;50.838;4.430;2023-06-24T12:04:14;1.70;;;1.58;;
23567;SDS011;11962;50.838;4.430;2023-06-24T12:06:42;2.72;;;1.60;;
23567;SDS011;11962;50.838;4.430;2023-06-24T12:09:09;2.28;;;1.75;;
23567;SDS011;11962;50.838;4.430;2023-06-24T12:11:35;2.33;;;1.63;;
23567;SDS011;11962;50.838;4.430;2023-06-24T12:14:01;2.37;;;2.00;;
23567;SDS011;11962;50.838;4.430;2023-06-24T12:16:28;2.28;;;1.73;;
23567;SDS011;11962;50.838;4.430;2023-06-24T12:18:54;2.70;;;1.80;;
23567;SDS011;11962;50.838;4.430;2023-06-24T12:21:20;3.15;;;1.77;;
23567;SDS011;11962;50.838;4.430;2023-06-24T12:23:46;2.63;;;1.67;;
23567;SDS011;11962;50.838;4.430;2023-06-24T12:26:12;1.90;;;1.70;;
23567;SDS011;11962;50.838;4.430;2023-06-24T12:28:38;4.90;;;1.80;;
23567;SDS011;11962;50.838;4.430;2023-06-24T12:31:04;2.53;;;1.75;;
23567;SDS011;11962;50.838;4.430;2023-06-24T12:33:30;1.80;;;1.63;;
23567;SDS011;11962;50.838;4.430;2023-06-24T12:35:56;3.22;;;1.85;;
23567;SDS011;11962;50.838;4.430;2023-06-24T12:38:22;2.38;;;1.63;;
23567;SDS011;11962;50.838;4.430;2023-06-24T12:40:48;1.45;;;1.35;;
23567;SDS011;11962;50.838;4.430;2023-06-24T12:43:14;2.38;;;2.10;;
23567;SDS011;11962;50.838;4.430;2023-06-24T12:45:40;3.33;;;2.05;;
23567;SDS011;11962;50.838;4.430;2023-06-24T12:48:10;4.82;;;1.75;;
23567;SDS011;11962;50.838;4.430;2023-06-24T12:50:36;2.60;;;1.98;;
23567;SDS011;11962;50.838;4.430;2023-06-24T12:53:02;2.78;;;1.85;;
23567;SDS011;11962;50.838;4.430;2023-06-24T12:55:28;2.88;;;1.83;;
23567;SDS011;11962;50.838;4.430;2023-06-24T12:57:55;4.07;;;2.30;;
23567;SDS011;11962;50.838;4.430;2023-06-24T13:00:20;4.57;;;2.10;;
23567;SDS011;11962;50.838;4.430;2023-06-24T13:02:47;1.90;;;1.63;;
23567;SDS011;11962;50.838;4.430;2023-06-24T13:05:14;3.05;;;1.83;;
23567;SDS011;11962;50.838;4.430;2023-06-24T13:07:40;3.35;;;1.98;;
23567;SDS011;11962;50.838;4.430;2023-06-24T13:10:06;4.55;;;1.77;;
23567;SDS011;11962;50.838;4.430;2023-06-24T13:12:33;2.65;;;1.70;;
23567;SDS011;11962;50.838;4.430;2023-06-24T13:14:59;4.32;;;2.17;;
23567;SDS011;11962;50.838;4.430;2023-06-24T13:17:24;3.63;;;1.92;;
23567;SDS011;11962;50.838;4.430;2023-06-24T13:19:50;2.80;;;1.83;;
23567;SDS011;11962;50.838;4.430;2023-06-24T13:22:17;3.30;;;2.10;;
23567;SDS011;11962;50.838;4.430;2023-06-24T13:24:48;4.22;;;1.95;;
23567;SDS011;11962;50.838;4.430;2023-06-24T13:27:14;3.10;;;1.85;;
23567;SDS011;11962;50.838;4.430;2023-06-24T13:29:40;4.53;;;2.28;;
23567;SDS011;11962;50.838;4.430;2023-06-24T13:32:06;3.00;;;1.77;;
23567;SDS011;11962;50.838;4.430;2023-06-24T13:34:32;2.75;;;2.10;;
23567;SDS011;11962;50.838;4.430;2023-06-24T13:36:57;2.80;;;1.63;;
23567;SDS011;11962;50.838;4.430;2023-06-24T13:39:23;2.63;;;1.75;;
23567;SDS011;11962;50.838;4.430;2023-06-24T13:41:49;2.67;;;2.10;;
23567;SDS011;11962;50.838;4.430;2023-06-24T13:44:15;2.95;;;2.00;;
23567;SDS011;11962;50.838;4.430;2023-06-24T13:46:41;2.55;;;2.10;;
23567;SDS011;11962;50.838;4.430;2023-06-24T13:49:07;2.40;;;2.10;;
23567;SDS011;11962;50.838;4.430;2023-06-24T13:51:33;3.00;;;1.92;;
23567;SDS011;11962;50.838;4.430;2023-06-24T13:54:00;3.85;;;1.75;;
23567;SDS011;11962;50.838;4.430;2023-06-24T13:56:26;2.20;;;2.00;;
23567;SDS011;11962;50.838;4.430;2023-06-24T13:58:52;4.60;;;2.00;;
23567;SDS011;11962;50.838;4.430;2023-06-24T14:01:19;2.95;;;2.00;;
23567;SDS011;11962;50.838;4.430;2023-06-24T14:03:45;2.78;;;1.88;;
23567;SDS011;11962;50.838;4.430;2023-06-24T14:06:13;4.75;;;1.83;;
23567;SDS011;11962;50.838;4.430;2023-06-24T14:08:40;3.90;;;2.13;;
23567;SDS011;11962;50.838;4.430;2023-06-24T14:11:07;3.03;;;1.90;;
23567;SDS011;11962;50.838;4.430;2023-06-24T14:13:33;4.40;;;2.30;;
23567;SDS011;11962;50.838;4.430;2023-06-24T14:15:58;9.50;;;2.20;;
23567;SDS011;11962;50.838;4.430;2023-06-24T14:18:24;2.50;;;2.10;;
23567;SDS011;11962;50.838;4.430;2023-06-24T14:20:50;4.32;;;2.17;;
23567;SDS011;11962;50.838;4.430;2023-06-24T14:23:17;4.03;;;2.15;;
23567;SDS011;11962;50.838;4.430;2023-06-24T14:25:43;2.40;;;2.03;;
23567;SDS011;11962;50.838;4.430;2023-06-24T14:28:09;2.70;;;2.17;;
23567;SDS011;11962;50.838;4.430;2023-06-24T14:30:34;3.33;;;2.30;;
23567;SDS011;11962;50.838;4.430;2023-06-24T14:33:00;3.40;;;2.33;;
23567;SDS011;11962;50.838;4.430;2023-06-24T14:35:27;3.50;;;2.00;;
23567;SDS011;11962;50.838;4.430;2023-06-24T14:37:52;2.72;;;1.95;;
23567;SDS011;11962;50.838;4.430;2023-06-24T14:40:18;4.65;;;2.40;;
23567;SDS011;11962;50.838;4.430;2023-06-24T14:42:44;2.58;;;2.08;;
23567;SDS011;11962;50.838;4.430;2023-06-24T14:45:10;2.28;;;1.95;;
23567;SDS011;11962;50.838;4.430;2023-06-24T14:47:36;3.10;;;2.20;;
23567;SDS011;11962;50.838;4.430;2023-06-24T14:50:02;3.63;;;2.25;;
23567;SDS011;11962;50.838;4.430;2023-06-24T14:52:29;2.78;;;2.42;;
23567;SDS011;11962;50.838;4.430;2023-06-24T14:54:54;2.20;;;2.00;;
23567;SDS011;11962;50.838;4.430;2023-06-24T14:57:20;3.33;;;2.40;;
23567;SDS011;11962;50.838;4.430;2023-06-24T14:59:48;2.63;;;1.85;;
23567;SDS011;11962;50.838;4.430;2023-06-24T15:02:14;3.35;;;2.20;;
23567;SDS011;11962;50.838;4.430;2023-06-24T15:04:40;5.53;;;2.33;;
23567;SDS011;11962;50.838;4.430;2023-06-24T15:07:06;3.03;;;2.08;;
23567;SDS011;11962;50.838;4.430;2023-06-24T15:09:32;6.30;;;2.10;;